createdAt,value
2022-09-28T00:00:02.033Z,14.46
2022-09-28T00:00:47.655Z,14.88
2022-09-28T00:01:19.450Z,14.73
2022-09-28T00:01:52.873Z,14.53
2022-09-28T00:02:25.595Z,14.79
2022-09-28T00:02:58.830Z,15.15
2022-09-28T00:03:30.602Z,15.20
2022-09-28T00:04:02.512Z,15.31
2022-09-28T00:04:34.550Z,15.17
2022-09-28T00:05:06.767Z,14.91
2022-09-28T00:05:38.474Z,14.83
2022-09-28T00:06:12.510Z,14.83
2022-09-28T00:06:44.747Z,14.95
2022-09-28T00:07:16.412Z,15.13
2022-09-28T00:07:48.421Z,14.84
2022-09-28T00:08:20.173Z,15.27
2022-09-28T00:08:52.164Z,15.27
2022-09-28T00:09:23.963Z,15.38
2022-09-28T00:09:55.639Z,15.23
2022-09-28T00:10:27.440Z,15.29
2022-09-28T00:10:59.252Z,15.34
2022-09-28T00:11:31.299Z,15.34
2022-09-28T00:12:03.028Z,14.96
2022-09-28T00:12:34.865Z,14.89
2022-09-28T00:13:08.173Z,15.01
2022-09-28T00:13:40.869Z,15.25
2022-09-28T00:14:13.158Z,15.02
2022-09-28T00:14:45.855Z,15.04
2022-09-28T00:15:18.629Z,15.16
2022-09-28T00:16:17.306Z,15.21
2022-09-28T00:16:50.255Z,15.15
2022-09-28T00:17:23.711Z,15.35
2022-09-28T00:17:55.455Z,15.37
2022-09-28T00:18:28.438Z,15.30
2022-09-28T00:19:01.113Z,15.49
2022-09-28T00:19:32.994Z,15.61
2022-09-28T00:20:05.833Z,15.20
2022-09-28T00:20:37.725Z,15.42
2022-09-28T00:21:21.539Z,15.65
2022-09-28T00:21:54.181Z,15.15
2022-09-28T00:22:25.929Z,15.13
2022-09-28T00:22:57.751Z,15.13
2022-09-28T00:23:29.661Z,15.32
2022-09-28T00:24:12.594Z,15.41
2022-09-28T00:24:44.767Z,14.54
2022-09-28T00:25:17.003Z,15.00
2022-09-28T00:25:48.737Z,15.26
2022-09-28T00:26:20.526Z,15.36
2022-09-28T00:26:55.109Z,15.48
2022-09-28T00:27:26.796Z,15.49
2022-09-28T00:27:58.582Z,15.48
2022-09-28T00:28:31.357Z,15.53
2022-09-28T00:29:03.371Z,15.65
2022-09-28T00:29:37.292Z,14.93
2022-09-28T00:30:09.505Z,15.03
2022-09-28T00:30:41.240Z,14.77
2022-09-28T00:31:13.319Z,15.03
2022-09-28T00:31:45.536Z,15.01
2022-09-28T00:32:17.358Z,15.20
2022-09-28T00:32:49.219Z,15.33
2022-09-28T00:33:21.083Z,15.17
2022-09-28T00:33:55.294Z,15.11
2022-09-28T00:34:27.433Z,15.33
2022-09-28T00:34:59.210Z,15.19
2022-09-28T00:35:31.382Z,15.28
2022-09-28T00:36:05.378Z,14.95
2022-09-28T00:36:37.209Z,15.12
2022-09-28T00:37:09.884Z,15.28
2022-09-28T00:37:41.613Z,15.44
2022-09-28T00:38:16.685Z,15.33
2022-09-28T00:38:49.772Z,15.43
2022-09-28T00:39:21.693Z,15.31
2022-09-28T00:39:53.470Z,15.33
2022-09-28T00:40:25.424Z,15.42
2022-09-28T00:40:57.462Z,15.56
2022-09-28T00:41:29.744Z,15.54
2022-09-28T00:42:02.880Z,15.48
2022-09-28T00:42:35.065Z,15.35
2022-09-28T00:43:20.980Z,15.64
2022-09-28T00:43:53.687Z,15.48
2022-09-28T00:44:26.687Z,15.65
2022-09-28T00:44:59.291Z,15.52
2022-09-28T00:45:31.445Z,15.30
2022-09-28T00:46:21.869Z,15.16
2022-09-28T00:46:58.342Z,15.12
2022-09-28T00:47:35.418Z,14.69
2022-09-28T00:48:08.262Z,15.00
2022-09-28T00:48:47.936Z,14.86
2022-09-28T00:49:26.500Z,14.75
2022-09-28T00:50:05.475Z,15.25
2022-09-28T00:50:38.636Z,15.35
2022-09-28T00:51:13.072Z,15.22
2022-09-28T00:51:45.947Z,15.23
2022-09-28T00:52:29.969Z,15.47
2022-09-28T00:53:16.023Z,15.70
2022-09-28T00:53:50.417Z,15.54
2022-09-28T00:54:22.474Z,15.43
2022-09-28T00:54:55.437Z,15.54
2022-09-28T00:55:43.444Z,15.66
2022-09-28T00:56:20.432Z,15.67
2022-09-28T00:56:52.257Z,15.13
2022-09-28T00:57:26.174Z,15.43
2022-09-28T00:58:02.015Z,15.20
2022-09-28T00:58:40.127Z,15.46
2022-09-28T00:59:12.086Z,15.55
2022-09-28T00:59:45.144Z,15.21
2022-09-28T01:00:16.928Z,15.37
2022-09-28T01:00:49.431Z,15.65
2022-09-28T01:01:21.568Z,15.81
2022-09-28T01:01:53.708Z,15.83
2022-09-28T01:02:25.651Z,15.36
2022-09-28T01:02:59.640Z,15.55
2022-09-28T01:03:32.809Z,15.27
2022-09-28T01:04:05.713Z,15.42
2022-09-28T01:04:39.196Z,15.52
2022-09-28T01:05:12.558Z,15.52
2022-09-28T01:05:47.013Z,15.67
2022-09-28T01:06:27.457Z,15.67
2022-09-28T01:07:00.121Z,14.84
2022-09-28T01:07:32.762Z,15.28
2022-09-28T01:08:04.696Z,15.44
2022-09-28T01:08:38.104Z,15.26
2022-09-28T01:09:12.361Z,15.24
2022-09-28T01:09:45.866Z,15.27
2022-09-28T01:10:18.483Z,15.34
2022-09-28T01:10:51.253Z,14.68
2022-09-28T01:11:26.349Z,14.86
2022-09-28T01:11:58.194Z,15.03
2022-09-28T01:12:30.120Z,14.96
2022-09-28T01:13:01.987Z,15.08
2022-09-28T01:13:34.081Z,15.16
2022-09-28T01:14:09.774Z,14.95
2022-09-28T01:14:42.590Z,15.36
2022-09-28T01:15:15.566Z,15.37
2022-09-28T01:16:15.852Z,15.27
2022-09-28T01:17:00.801Z,15.50
2022-09-28T01:18:23.815Z,15.52
2022-09-28T01:19:08.029Z,15.14
2022-09-28T01:20:07.816Z,15.39
2022-09-28T01:21:05.803Z,15.83
2022-09-28T01:21:51.862Z,15.58
2022-09-28T01:22:34.424Z,15.34
2022-09-28T01:23:32.180Z,15.54
2022-09-28T01:24:15.863Z,15.53
2022-09-28T01:25:16.638Z,15.49
2022-09-28T01:26:05.043Z,15.55
2022-09-28T01:26:44.487Z,15.87
2022-09-28T01:27:42.357Z,15.61
2022-09-28T01:28:20.682Z,15.64
2022-09-28T01:29:00.940Z,15.36
2022-09-28T01:29:58.021Z,15.38
2022-09-28T01:30:34.725Z,15.54
2022-09-28T01:31:17.846Z,15.44
2022-09-28T01:31:56.641Z,15.60
2022-09-28T01:32:49.497Z,15.37
2022-09-28T01:33:26.950Z,15.08
2022-09-28T01:34:04.771Z,14.94
2022-09-28T01:35:08.910Z,15.36
2022-09-28T01:35:50.338Z,15.21
2022-09-28T01:36:34.723Z,15.20
2022-09-28T01:37:11.308Z,15.28
2022-09-28T01:38:09.511Z,15.13
2022-09-28T01:38:50.876Z,14.72
2022-09-28T01:39:28.842Z,15.02
2022-09-28T01:40:03.973Z,15.39
2022-09-28T01:40:37.547Z,15.31
2022-09-28T01:41:10.268Z,15.61
2022-09-28T01:41:46.139Z,15.49
2022-09-28T01:42:24.579Z,15.42
2022-09-28T01:43:05.906Z,15.65
2022-09-28T01:43:45.777Z,15.51
2022-09-28T01:44:21.187Z,15.20
2022-09-28T01:45:00.745Z,15.41
2022-09-28T01:45:45.710Z,15.59
2022-09-28T01:46:22.406Z,14.98
2022-09-28T01:46:54.268Z,15.17
2022-09-28T01:47:29.120Z,15.55
2022-09-28T01:48:06.893Z,15.46
2022-09-28T01:48:51.506Z,15.69
2022-09-28T01:49:34.271Z,15.47
2022-09-28T01:50:19.508Z,15.23
2022-09-28T01:50:56.103Z,15.14
2022-09-28T01:51:51.851Z,15.15
2022-09-28T01:52:29.354Z,14.96
2022-09-28T01:53:09.789Z,14.87
2022-09-28T01:53:45.473Z,15.55
2022-09-28T01:54:32.379Z,15.49
2022-09-28T01:55:14.123Z,15.46
2022-09-28T01:55:53.014Z,15.67
2022-09-28T01:56:32.227Z,15.75
2022-09-28T01:57:15.217Z,15.47
2022-09-28T01:57:56.481Z,14.82
2022-09-28T01:58:37.205Z,15.01
2022-09-28T01:59:17.509Z,15.31
2022-09-28T02:00:01.306Z,15.31
2022-09-28T02:00:41.481Z,15.26
2022-09-28T02:01:27.418Z,15.04
2022-09-28T02:02:05.788Z,14.68
2022-09-28T02:02:45.109Z,14.94
2022-09-28T02:03:24.393Z,15.18
2022-09-28T02:04:11.996Z,15.29
2022-09-28T02:04:53.966Z,15.41
2022-09-28T02:05:28.696Z,15.40
2022-09-28T02:06:08.501Z,15.22
2022-09-28T02:07:02.142Z,15.65
2022-09-28T02:07:42.746Z,15.74
2022-09-28T02:08:26.887Z,15.06
2022-09-28T02:09:05.356Z,15.28
2022-09-28T02:10:01.202Z,15.28
2022-09-28T02:10:42.412Z,15.16
2022-09-28T02:11:18.278Z,14.97
2022-09-28T02:11:58.928Z,15.30
2022-09-28T02:12:35.432Z,15.38
2022-09-28T02:13:13.803Z,15.13
2022-09-28T02:14:03.792Z,15.10
2022-09-28T02:14:39.352Z,15.17
2022-09-28T02:15:20.676Z,14.83
2022-09-28T02:16:05.067Z,14.84
2022-09-28T02:16:43.610Z,15.09
2022-09-28T02:17:16.529Z,14.81
2022-09-28T02:17:52.269Z,14.77
2022-09-28T02:18:24.701Z,14.91
2022-09-28T02:18:58.747Z,15.15
2022-09-28T02:19:32.137Z,15.10
2022-09-28T02:20:04.618Z,15.33
2022-09-28T02:20:42.766Z,15.20
2022-09-28T02:21:32.040Z,15.38
2022-09-28T02:22:23.139Z,15.31
2022-09-28T02:22:59.500Z,14.83
2022-09-28T02:23:37.581Z,14.88
2022-09-28T02:24:22.463Z,14.65
2022-09-28T02:25:07.841Z,14.99
2022-09-28T02:25:49.730Z,15.15
2022-09-28T02:26:29.576Z,14.83
2022-09-28T02:27:08.391Z,15.30
2022-09-28T02:28:00.347Z,15.13
2022-09-28T02:28:33.060Z,14.98
2022-09-28T02:29:05.018Z,15.14
2022-09-28T02:29:36.944Z,15.05
2022-09-28T02:30:09.382Z,14.89
2022-09-28T02:30:43.466Z,14.87
2022-09-28T02:31:15.641Z,15.19
2022-09-28T02:31:48.319Z,15.16
2022-09-28T02:32:20.303Z,15.09
2022-09-28T02:32:57.176Z,14.98
2022-09-28T02:33:38.507Z,15.17
2022-09-28T02:34:11.085Z,14.96
2022-09-28T02:34:42.944Z,14.78
2022-09-28T02:35:19.758Z,14.94
2022-09-28T02:35:51.845Z,15.29
2022-09-28T02:36:27.577Z,15.37
2022-09-28T02:37:00.775Z,15.19
2022-09-28T02:37:32.623Z,15.05
2022-09-28T02:38:04.511Z,14.89
2022-09-28T02:38:37.292Z,15.22
2022-09-28T02:39:17.770Z,14.89
2022-09-28T02:39:49.788Z,14.71
2022-09-28T02:40:25.396Z,14.55
2022-09-28T02:41:09.237Z,14.64
2022-09-28T02:41:52.773Z,14.85
2022-09-28T02:42:31.408Z,14.55
2022-09-28T02:43:16.647Z,14.98
2022-09-28T02:44:03.578Z,15.12
2022-09-28T02:44:54.627Z,15.20
2022-09-28T02:45:40.247Z,14.42
2022-09-28T02:46:32.697Z,14.85
2022-09-28T02:47:41.938Z,14.91
2022-09-28T02:48:43.547Z,15.43
2022-09-28T02:49:41.726Z,14.93
2022-09-28T02:50:32.082Z,15.10
2022-09-28T02:51:20.750Z,15.40
2022-09-28T02:51:52.464Z,15.26
2022-09-28T02:52:31.001Z,15.18
2022-09-28T02:53:15.009Z,15.00
2022-09-28T02:53:49.675Z,15.09
2022-09-28T02:54:29.476Z,14.93
2022-09-28T02:55:33.555Z,15.31
2022-09-28T02:56:29.734Z,15.41
2022-09-28T02:57:13.189Z,15.20
2022-09-28T02:57:44.961Z,15.02
2022-09-28T02:58:22.798Z,14.93
2022-09-28T02:59:08.723Z,15.05
2022-09-28T03:00:04.552Z,14.25
2022-09-28T03:01:04.638Z,14.70
2022-09-28T03:02:08.049Z,14.75
2022-09-28T03:03:02.025Z,15.10
2022-09-28T03:03:46.982Z,14.71
2022-09-28T03:04:33.588Z,15.06
2022-09-28T03:05:26.535Z,14.97
2022-09-28T03:06:14.245Z,15.04
2022-09-28T03:07:13.430Z,15.01
2022-09-28T03:07:59.714Z,15.07
2022-09-28T03:08:44.132Z,14.79
2022-09-28T03:09:45.833Z,15.01
2022-09-28T03:10:25.759Z,14.97
2022-09-28T03:11:03.291Z,15.02
2022-09-28T03:11:45.274Z,15.28
2022-09-28T03:12:20.711Z,15.31
2022-09-28T03:12:54.815Z,14.96
2022-09-28T03:13:28.317Z,15.07
2022-09-28T03:14:01.575Z,14.91
2022-09-28T03:14:43.260Z,14.93
2022-09-28T03:15:35.933Z,14.78
2022-09-28T03:16:13.498Z,14.99
2022-09-28T03:16:46.929Z,14.60
2022-09-28T03:17:20.852Z,14.49
2022-09-28T03:17:53.169Z,14.61
2022-09-28T03:18:24.898Z,14.82
2022-09-28T03:18:56.710Z,15.01
2022-09-28T03:19:32.055Z,15.14
2022-09-28T03:20:05.575Z,14.86
2022-09-28T03:20:37.405Z,14.88
2022-09-28T03:21:11.779Z,14.74
2022-09-28T03:21:43.513Z,14.72
2022-09-28T03:22:15.872Z,14.86
2022-09-28T03:23:05.936Z,14.93
2022-09-28T03:23:40.118Z,15.13
2022-09-28T03:24:11.989Z,15.49
2022-09-28T03:24:45.062Z,15.46
2022-09-28T03:25:17.035Z,15.41
2022-09-28T03:25:49.444Z,15.46
2022-09-28T03:26:21.392Z,15.74
2022-09-28T03:26:53.225Z,15.23
2022-09-28T03:27:25.021Z,15.36
2022-09-28T03:27:57.005Z,15.01
2022-09-28T03:28:29.653Z,15.25
2022-09-28T03:29:03.223Z,15.80
2022-09-28T03:29:35.252Z,15.41
2022-09-28T03:30:11.522Z,15.55
2022-09-28T03:30:45.670Z,15.57
2022-09-28T03:31:19.712Z,15.43
2022-09-28T03:31:51.648Z,15.70
2022-09-28T03:32:23.912Z,15.84
2022-09-28T03:33:00.280Z,16.20
2022-09-28T03:33:34.824Z,15.68
2022-09-28T03:34:06.644Z,15.83
2022-09-28T03:34:38.407Z,15.46
2022-09-28T03:35:10.302Z,15.07
2022-09-28T03:35:46.561Z,15.83
2022-09-28T03:36:18.820Z,15.53
2022-09-28T03:36:50.886Z,15.64
2022-09-28T03:37:22.731Z,15.80
2022-09-28T03:37:56.268Z,15.54
2022-09-28T03:38:29.748Z,15.31
2022-09-28T03:39:01.652Z,15.02
2022-09-28T03:39:34.216Z,15.33
2022-09-28T03:40:06.606Z,15.76
2022-09-28T03:40:40.352Z,15.73
2022-09-28T03:41:12.148Z,15.67
2022-09-28T03:41:46.868Z,15.68
2022-09-28T03:42:18.920Z,15.54
2022-09-28T03:42:54.142Z,15.76
2022-09-28T03:43:27.321Z,16.00
2022-09-28T03:44:03.720Z,15.49
2022-09-28T03:44:37.784Z,15.54
2022-09-28T03:45:09.921Z,15.51
2022-09-28T03:45:41.984Z,15.64
2022-09-28T03:46:13.816Z,15.62
2022-09-28T03:46:50.456Z,15.79
2022-09-28T03:47:22.582Z,15.51
2022-09-28T03:47:54.649Z,15.71
2022-09-28T03:48:32.911Z,15.53
2022-09-28T03:49:05.244Z,15.72
2022-09-28T03:49:37.047Z,15.70
2022-09-28T03:50:09.206Z,15.56
2022-09-28T03:50:41.002Z,15.67
2022-09-28T03:51:14.747Z,15.68
2022-09-28T03:51:47.052Z,16.09
2022-09-28T03:52:18.816Z,15.78
2022-09-28T03:52:50.725Z,15.90
2022-09-28T03:53:23.004Z,15.79
2022-09-28T03:53:54.862Z,15.14
2022-09-28T03:54:26.572Z,15.32
2022-09-28T03:54:58.513Z,15.50
2022-09-28T03:55:30.525Z,15.74
2022-09-28T03:56:13.104Z,15.84
2022-09-28T03:56:46.761Z,15.40
2022-09-28T03:57:18.517Z,15.23
2022-09-28T03:57:55.743Z,15.15
2022-09-28T03:58:28.325Z,15.37
2022-09-28T03:59:02.334Z,16.02
2022-09-28T03:59:37.354Z,15.83
2022-09-28T04:00:10.235Z,16.04
2022-09-28T04:00:49.767Z,16.40
2022-09-28T04:01:21.707Z,16.25
2022-09-28T04:01:54.484Z,15.81
2022-09-28T04:02:26.366Z,15.82
2022-09-28T04:02:58.269Z,15.83
2022-09-28T04:03:31.341Z,15.90
2022-09-28T04:04:03.186Z,16.10
2022-09-28T04:04:35.941Z,15.99
2022-09-28T04:05:08.169Z,15.69
2022-09-28T04:05:40.503Z,15.83
2022-09-28T04:06:12.292Z,15.66
2022-09-28T04:06:44.438Z,15.67
2022-09-28T04:07:16.129Z,15.78
2022-09-28T04:07:48.547Z,15.96
2022-09-28T04:08:20.379Z,15.61
2022-09-28T04:08:52.314Z,15.50
2022-09-28T04:09:25.106Z,15.18
2022-09-28T04:09:57.037Z,15.54
2022-09-28T04:10:28.811Z,15.84
2022-09-28T04:11:01.795Z,15.75
2022-09-28T04:11:59.382Z,15.95
2022-09-28T04:12:27.032Z,15.63
2022-09-28T04:12:58.799Z,15.67
2022-09-28T04:13:30.967Z,15.37
2022-09-28T04:14:03.644Z,15.34
2022-09-28T04:14:36.215Z,15.44
2022-09-28T04:15:09.291Z,15.40
2022-09-28T04:15:41.599Z,15.76
2022-09-28T04:16:13.442Z,15.81
2022-09-28T04:16:48.827Z,15.89
2022-09-28T04:17:21.078Z,15.88
2022-09-28T04:17:55.941Z,15.82
2022-09-28T04:18:45.535Z,15.51
2022-09-28T04:19:25.311Z,15.20
2022-09-28T04:20:08.034Z,15.50
2022-09-28T04:20:47.981Z,15.30
2022-09-28T04:21:20.912Z,15.53
2022-09-28T04:22:02.115Z,15.48
2022-09-28T04:22:34.660Z,15.45
2022-09-28T04:23:06.495Z,15.58
2022-09-28T04:23:40.056Z,15.48
2022-09-28T04:24:11.877Z,15.37
2022-09-28T04:24:43.676Z,15.61
2022-09-28T04:25:15.626Z,15.73
2022-09-28T04:25:52.230Z,15.22
2022-09-28T04:26:26.469Z,15.34
2022-09-28T04:27:18.213Z,15.53
2022-09-28T04:28:08.864Z,15.73
2022-09-28T04:29:05.544Z,15.66
2022-09-28T04:29:38.883Z,15.79
2022-09-28T04:30:11.535Z,15.72
2022-09-28T04:30:47.002Z,15.70
2022-09-28T04:31:21.756Z,15.85
2022-09-28T04:31:55.283Z,15.58
2022-09-28T04:32:33.684Z,14.86
2022-09-28T04:33:05.571Z,15.18
2022-09-28T04:33:37.791Z,15.27
2022-09-28T04:34:09.836Z,14.85
2022-09-28T04:34:44.128Z,14.78
2022-09-28T04:35:16.939Z,15.18
2022-09-28T04:35:48.732Z,15.22
2022-09-28T04:36:20.774Z,15.54
2022-09-28T04:36:52.582Z,15.44
2022-09-28T04:37:24.491Z,15.40
2022-09-28T04:37:56.283Z,15.51
2022-09-28T04:38:48.707Z,15.36
2022-09-28T04:39:20.067Z,15.46
2022-09-28T04:39:55.269Z,15.62
2022-09-28T04:40:27.106Z,15.57
2022-09-28T04:40:59.086Z,15.11
2022-09-28T04:41:31.127Z,15.04
2022-09-28T04:42:02.910Z,15.41
2022-09-28T04:42:34.732Z,15.43
2022-09-28T04:43:06.484Z,15.23
2022-09-28T04:43:39.428Z,15.43
2022-09-28T04:44:11.240Z,15.01
2022-09-28T04:44:43.196Z,14.72
2022-09-28T04:45:15.044Z,15.21
2022-09-28T04:45:49.733Z,15.18
2022-09-28T04:46:22.237Z,15.15
2022-09-28T04:47:05.131Z,15.42
2022-09-28T04:47:37.243Z,15.28
2022-09-28T04:48:34.111Z,15.18
2022-09-28T04:49:29.661Z,15.41
2022-09-28T04:50:11.256Z,15.60
2022-09-28T04:51:02.995Z,15.34
2022-09-28T04:51:34.752Z,15.33
2022-09-28T04:52:07.254Z,15.34
2022-09-28T04:52:39.977Z,15.25
2022-09-28T04:53:12.027Z,15.14
2022-09-28T04:53:44.023Z,14.76
2022-09-28T04:54:16.225Z,15.00
2022-09-28T04:54:48.245Z,15.07
2022-09-28T04:55:21.404Z,15.28
2022-09-28T04:56:01.010Z,15.36
2022-09-28T04:56:33.317Z,15.32
2022-09-28T04:57:06.105Z,15.39
2022-09-28T04:57:38.031Z,15.16
2022-09-28T04:58:09.744Z,15.24
2022-09-28T04:58:42.864Z,15.42
2022-09-28T04:59:15.832Z,15.33
2022-09-28T04:59:48.208Z,15.44
2022-09-28T05:00:20.093Z,15.52
2022-09-28T05:01:12.467Z,15.16
2022-09-28T05:02:02.287Z,14.72
2022-09-28T05:02:56.804Z,14.93
2022-09-28T05:03:47.163Z,14.93
2022-09-28T05:04:39.132Z,14.95
2022-09-28T05:05:31.433Z,15.09
2022-09-28T05:06:23.156Z,14.99
2022-09-28T05:07:01.725Z,15.31
2022-09-28T05:07:33.519Z,15.01
2022-09-28T05:08:07.828Z,14.80
2022-09-28T05:08:40.817Z,14.83
2022-09-28T05:09:13.223Z,15.27
2022-09-28T05:09:45.057Z,15.41
2022-09-28T05:10:17.801Z,15.07
2022-09-28T05:10:56.853Z,15.24
2022-09-28T05:11:28.604Z,15.47
2022-09-28T05:12:00.719Z,15.42
2022-09-28T05:12:32.548Z,15.41
2022-09-28T05:13:04.886Z,15.13
2022-09-28T05:13:45.250Z,15.27
2022-09-28T05:14:21.944Z,15.30
2022-09-28T05:14:53.686Z,15.34
2022-09-28T05:15:25.636Z,15.24
2022-09-28T05:16:04.385Z,15.26
2022-09-28T05:16:40.209Z,15.60
2022-09-28T05:17:31.978Z,15.57
2022-09-28T05:18:14.398Z,15.63
2022-09-28T05:19:07.030Z,15.27
2022-09-28T05:19:38.827Z,15.51
2022-09-28T05:20:10.582Z,15.51
2022-09-28T05:20:42.771Z,15.09
2022-09-28T05:21:15.622Z,14.98
2022-09-28T05:21:48.759Z,15.25
2022-09-28T05:22:20.530Z,15.39
2022-09-28T05:22:52.334Z,15.40
2022-09-28T05:23:24.398Z,15.42
2022-09-28T05:23:59.601Z,15.57
2022-09-28T05:24:31.818Z,15.52
2022-09-28T05:25:04.576Z,15.82
2022-09-28T05:25:45.893Z,15.24
2022-09-28T05:26:23.699Z,15.16
2022-09-28T05:26:55.570Z,14.83
2022-09-28T05:27:27.353Z,15.01
2022-09-28T05:28:28.856Z,15.38
2022-09-28T05:29:19.414Z,15.22
2022-09-28T05:30:14.267Z,15.15
2022-09-28T05:31:05.023Z,15.28
2022-09-28T05:32:03.209Z,15.33
2022-09-28T05:32:42.355Z,15.67
2022-09-28T05:33:27.207Z,15.29
2022-09-28T05:34:14.849Z,15.18
2022-09-28T05:34:46.795Z,15.23
2022-09-28T05:35:24.628Z,15.07
2022-09-28T05:36:00.874Z,15.06
2022-09-28T05:36:57.880Z,15.05
2022-09-28T05:37:41.501Z,15.27
2022-09-28T05:38:13.272Z,15.09
2022-09-28T05:38:45.358Z,15.09
2022-09-28T05:39:17.198Z,15.38
2022-09-28T05:39:50.024Z,15.44
2022-09-28T05:40:22.368Z,15.14
2022-09-28T05:40:54.357Z,15.23
2022-09-28T05:41:26.432Z,15.31
2022-09-28T05:41:58.155Z,15.53
2022-09-28T05:42:31.038Z,15.23
2022-09-28T05:43:03.005Z,15.43
2022-09-28T05:43:36.561Z,15.62
2022-09-28T05:44:10.133Z,15.63
2022-09-28T05:44:42.147Z,15.58
2022-09-28T05:45:14.104Z,15.15
2022-09-28T05:45:52.816Z,14.83
2022-09-28T05:46:27.067Z,15.28
2022-09-28T05:46:59.143Z,15.53
2022-09-28T05:47:30.948Z,15.85
2022-09-28T05:48:02.762Z,15.93
2022-09-28T05:48:34.594Z,15.79
2022-09-28T05:49:07.431Z,15.37
2022-09-28T05:49:39.164Z,15.26
2022-09-28T05:50:11.924Z,15.62
2022-09-28T05:50:44.474Z,15.31
2022-09-28T05:51:16.349Z,15.37
2022-09-28T05:51:48.374Z,15.52
2022-09-28T05:52:20.316Z,15.72
2022-09-28T05:53:08.190Z,15.64
2022-09-28T05:53:41.459Z,15.51
2022-09-28T05:54:13.505Z,15.39
2022-09-28T05:54:49.243Z,15.48
2022-09-28T05:55:21.091Z,15.73
2022-09-28T05:55:52.862Z,15.73
2022-09-28T05:56:25.253Z,15.25
2022-09-28T05:56:57.714Z,15.38
2022-09-28T05:57:30.424Z,15.29
2022-09-28T05:58:06.158Z,15.53
2022-09-28T05:58:37.915Z,15.51
2022-09-28T05:59:10.097Z,15.71
2022-09-28T05:59:42.153Z,16.03
2022-09-28T06:00:14.009Z,15.98
2022-09-28T06:00:57.650Z,15.62
2022-09-28T06:01:29.824Z,15.63
2022-09-28T06:02:04.656Z,14.99
2022-09-28T06:02:36.467Z,15.17
2022-09-28T06:03:11.859Z,15.29
2022-09-28T06:03:43.827Z,15.29
2022-09-28T06:04:16.440Z,15.34
2022-09-28T06:04:51.089Z,15.46
2022-09-28T06:05:23.447Z,15.39
2022-09-28T06:05:55.240Z,15.60
2022-09-28T06:06:27.004Z,15.72
2022-09-28T06:06:59.127Z,15.77
2022-09-28T06:07:31.357Z,15.65
2022-09-28T06:08:05.169Z,15.61
2022-09-28T06:08:37.208Z,15.74
2022-09-28T06:09:26.174Z,15.48
2022-09-28T06:10:00.731Z,15.64
2022-09-28T06:10:45.722Z,15.63
2022-09-28T06:11:18.681Z,15.43
2022-09-28T06:11:52.135Z,15.23
2022-09-28T06:12:37.602Z,15.53
2022-09-28T06:13:15.576Z,15.76
2022-09-28T06:13:47.422Z,15.36
2022-09-28T06:14:20.114Z,15.46
2022-09-28T06:14:52.744Z,15.37
2022-09-28T06:15:27.058Z,15.51
2022-09-28T06:16:00.376Z,15.48
2022-09-28T06:16:32.272Z,15.66
2022-09-28T06:17:04.821Z,15.38
2022-09-28T06:17:36.688Z,15.16
2022-09-28T06:18:27.053Z,15.55
2022-09-28T06:19:17.272Z,15.68
2022-09-28T06:20:10.572Z,15.95
2022-09-28T06:21:03.931Z,16.18
2022-09-28T06:21:39.183Z,16.43
2022-09-28T06:22:11.863Z,16.31
2022-09-28T06:22:52.817Z,15.95
2022-09-28T06:23:24.646Z,15.87
2022-09-28T06:23:56.439Z,16.24
2022-09-28T06:24:28.272Z,16.27
2022-09-28T06:25:00.018Z,16.19
2022-09-28T06:25:31.995Z,16.26
2022-09-28T06:26:03.765Z,16.16
2022-09-28T06:26:35.600Z,16.39
2022-09-28T06:27:07.359Z,16.32
2022-09-28T06:27:40.597Z,16.44
2022-09-28T06:28:14.438Z,16.49
2022-09-28T06:28:46.398Z,16.06
2022-09-28T06:29:19.911Z,16.05
2022-09-28T06:29:52.782Z,16.04
2022-09-28T06:30:27.247Z,15.54
2022-09-28T06:31:02.273Z,15.70
2022-09-28T06:31:35.682Z,15.81
2022-09-28T06:32:07.583Z,15.95
2022-09-28T06:32:41.620Z,15.55
2022-09-28T06:33:14.457Z,15.94
2022-09-28T06:33:48.318Z,15.98
2022-09-28T06:34:21.418Z,16.04
2022-09-28T06:34:56.288Z,16.04
2022-09-28T06:35:31.088Z,16.02
2022-09-28T06:36:02.837Z,15.89
2022-09-28T06:36:34.588Z,15.88
2022-09-28T06:37:06.987Z,15.85
2022-09-28T06:37:39.738Z,15.74
2022-09-28T06:38:13.522Z,15.86
2022-09-28T06:38:45.763Z,16.05
2022-09-28T06:39:18.807Z,16.27
2022-09-28T06:39:50.614Z,16.29
2022-09-28T06:40:24.787Z,16.16
2022-09-28T06:40:58.035Z,16.41
2022-09-28T06:41:30.843Z,16.27
2022-09-28T06:42:05.856Z,16.45
2022-09-28T06:43:00.195Z,16.19
2022-09-28T06:43:52.207Z,15.67
2022-09-28T06:44:42.635Z,15.92
2022-09-28T06:45:38.711Z,15.61
2022-09-28T06:46:27.709Z,16.26
2022-09-28T06:47:25.370Z,15.99
2022-09-28T06:48:10.433Z,15.70
2022-09-28T06:48:46.492Z,15.94
2022-09-28T06:49:22.814Z,15.88
2022-09-28T06:50:37.296Z,16.25
2022-09-28T06:51:32.187Z,15.89
2022-09-28T06:52:16.844Z,15.84
2022-09-28T06:53:22.078Z,16.34
2022-09-28T06:54:12.315Z,16.19
2022-09-28T06:54:58.848Z,15.96
2022-09-28T06:55:44.110Z,15.72
2022-09-28T06:56:16.671Z,16.08
2022-09-28T06:56:49.666Z,16.03
2022-09-28T06:57:23.778Z,16.19
2022-09-28T06:58:06.554Z,16.32
2022-09-28T06:58:38.452Z,16.25
2022-09-28T06:59:11.917Z,16.28
2022-09-28T06:59:44.312Z,15.83
2022-09-28T07:00:16.160Z,15.87
2022-09-28T07:00:51.933Z,15.40
2022-09-28T07:01:23.982Z,15.44
2022-09-28T07:02:28.099Z,15.50
2022-09-28T07:03:27.804Z,15.70
2022-09-28T07:04:19.177Z,15.79
2022-09-28T07:05:13.503Z,15.77
2022-09-28T07:06:05.711Z,15.62
2022-09-28T07:06:47.136Z,16.25
2022-09-28T07:07:36.843Z,16.48
2022-09-28T07:08:29.168Z,15.69
2022-09-28T07:09:31.351Z,15.61
2022-09-28T07:10:13.171Z,16.20
2022-09-28T07:11:08.760Z,16.21
2022-09-28T07:11:50.011Z,16.15
2022-09-28T07:12:48.901Z,16.10
2022-09-28T07:13:52.155Z,15.97
2022-09-28T07:14:45.166Z,15.93
2022-09-28T07:15:20.732Z,16.10
2022-09-28T07:15:57.760Z,16.52
2022-09-28T07:16:55.235Z,16.22
2022-09-28T07:17:23.139Z,16.16
2022-09-28T07:18:03.970Z,15.62
2022-09-28T07:18:36.936Z,15.70
2022-09-28T07:19:09.683Z,15.77
2022-09-28T07:19:41.635Z,15.82
2022-09-28T07:20:19.111Z,15.91
2022-09-28T07:20:54.697Z,15.45
2022-09-28T07:21:30.098Z,15.32
2022-09-28T07:22:05.658Z,15.60
2022-09-28T07:22:43.534Z,15.52
2022-09-28T07:23:20.218Z,15.36
2022-09-28T07:24:30.317Z,15.34
2022-09-28T07:25:45.367Z,15.20
2022-09-28T07:26:36.706Z,15.46
2022-09-28T07:27:16.003Z,15.10
2022-09-28T07:28:19.530Z,14.90
2022-09-28T07:29:09.001Z,14.99
2022-09-28T07:30:01.643Z,14.86
2022-09-28T07:30:44.719Z,14.78
2022-09-28T07:31:20.165Z,14.60
2022-09-28T07:31:59.702Z,14.49
2022-09-28T07:33:01.104Z,14.25
2022-09-28T07:33:42.011Z,14.16
2022-09-28T07:34:23.122Z,14.23
2022-09-28T07:35:21.021Z,14.15
2022-09-28T07:35:55.953Z,13.80
2022-09-28T07:36:35.090Z,13.90
2022-09-28T07:37:11.727Z,14.12
2022-09-28T07:37:43.570Z,14.37
2022-09-28T07:38:15.391Z,14.24
2022-09-28T07:38:47.668Z,14.13
2022-09-28T07:39:19.592Z,14.10
2022-09-28T07:40:10.126Z,13.83
2022-09-28T07:41:02.180Z,14.25
2022-09-28T07:41:34.946Z,14.12
2022-09-28T07:42:09.475Z,14.04
2022-09-28T07:42:41.656Z,13.62
2022-09-28T07:43:16.909Z,13.65
2022-09-28T07:43:49.911Z,14.17
2022-09-28T07:44:21.810Z,14.13
2022-09-28T07:44:58.976Z,13.85
2022-09-28T07:45:34.033Z,13.77
2022-09-28T07:46:11.930Z,13.56
2022-09-28T07:46:47.630Z,13.59
2022-09-28T07:47:34.726Z,13.52
2022-09-28T07:48:25.420Z,13.67
2022-09-28T07:49:01.629Z,13.88
2022-09-28T07:49:39.316Z,14.24
2022-09-28T07:50:21.169Z,14.05
2022-09-28T07:51:13.305Z,14.07
2022-09-28T07:51:50.078Z,14.22
2022-09-28T07:52:40.620Z,13.83
2022-09-28T07:53:25.486Z,13.92
2022-09-28T07:54:15.678Z,13.81
2022-09-28T07:55:07.517Z,14.20
2022-09-28T07:56:17.309Z,14.34
2022-09-28T07:57:02.001Z,14.49
2022-09-28T07:57:59.629Z,15.00
2022-09-28T07:58:44.768Z,14.54
2022-09-28T07:59:32.457Z,14.72
2022-09-28T08:00:23.289Z,14.87
2022-09-28T08:00:55.264Z,14.33
2022-09-28T08:01:27.202Z,14.57
2022-09-28T08:01:59.749Z,14.96
2022-09-28T08:02:35.098Z,14.85
2022-09-28T08:03:07.010Z,14.73
2022-09-28T08:03:39.648Z,15.07
2022-09-28T08:04:11.632Z,14.76
2022-09-28T08:04:49.985Z,13.93
2022-09-28T08:05:21.808Z,14.30
2022-09-28T08:06:01.122Z,14.60
2022-09-28T08:06:33.149Z,14.44
2022-09-28T08:07:11.666Z,14.01
2022-09-28T08:07:44.759Z,14.18